Latest Weather Observations for Jandakot

IDW60801

Issued at 9:33 am WST Wednesday 13 December 2017 (issued every 30 minutes, with the page automatically refreshed every 10 minutes)

About weather observations | Map of weather stations | Latest weather observations for WA | Other Formats
Station Details ID: 009172 Name: JANDAKOT AERO Lat: -32.10 Lon: 115.88 Height: 30.0 m
Data from the previous 72 hours. | See also: Recent months at Jandakot
Date/Time
WST
Temp
°C
App
Temp
°C
Dew
Point
°C
Rel
Hum
%
Delta-T
°C
Wind Press
QNH
hPa
Press
MSL
hPa
Rain since
9am
mm
Dir  Spd
km/h
Gust
km/h
Spd
kts
Gust
kts
13/09:30am 22.7 18.7 9.1 42 7.3 SSE 20 30 11 16 1018.0 1017.9 0.0
13/09:00am 22.3 18.0 9.5 44 6.9 SSE 22 32 12 17 1018.0 1017.9 0.0
13/08:30am 21.3 16.4 8.6 44 6.7 SSE 24 32 13 17 1018.2 1018.1 0.0
13/08:00am 20.3 16.5 9.8 51 5.6 SSE 20 28 11 15 1018.2 1018.1 0.0
13/07:30am 18.9 15.8 10.3 57 4.6 S 17 24 9 13 1018.2 1018.1 0.0
13/07:00am 17.7 15.8 10.4 62 3.9 SSE 11 17 6 9 1017.8 1017.7 0.0
13/06:30am 15.7 14.4 11.4 75 2.3 S 9 11 5 6 1017.5 1017.4 0.0
13/06:00am 14.5 13.6 11.5 82 1.6 SE 7 9 4 5 1016.9 1016.8 0.0
13/05:30am 13.7 12.7 11.0 84 1.4 SSE 7 9 4 5 1016.4 1016.3 0.0
13/05:00am 14.1 12.0 11.1 82 1.6 S 13 19 7 10 1016.1 1016.0 0.0
13/04:30am 14.4 11.9 11.2 81 1.7 S 15 20 8 11 1015.8 1015.7 0.0
13/04:00am 14.7 12.3 11.3 80 1.8 SSW 15 19 8 10 1015.5 1015.4 0.0
13/03:30am 14.7 12.6 11.3 80 1.8 SSW 13 15 7 8 1015.3 1015.2 0.0
13/03:00am 14.9 13.2 11.3 79 1.9 SSW 11 13 6 7 1015.2 1015.1 0.0
13/02:30am 15.6 13.2 11.3 75 2.3 S 15 20 8 11 1015.1 1015.0 0.0
13/02:00am 16.1 13.3 11.3 73 2.6 S 17 22 9 12 1015.2 1015.1 0.0
13/01:30am 16.8 13.0 11.2 69 3.0 S 22 30 12 16 1015.2 1015.1 0.0
13/01:00am 17.3 13.9 11.2 67 3.3 SSW 20 26 11 14 1015.2 1015.1 0.0
13/12:30am 17.8 14.0 11.2 65 3.6 SSW 22 32 12 17 1015.1 1015.0 0.0
13/12:00am 18.4 13.8 11.0 62 4.0 SSW 26 33 14 18 1015.0 1014.9 0.0
 
Date/Time
WST
Temp
°C
App
Temp
°C
Dew
Point
°C
Rel
Hum
%
Delta-T
°C
Wind Press
QNH
hPa
Press
MSL
hPa
Rain since
9am
mm
Dir  Spd
km/h
Gust
km/h
Spd
kts
Gust
kts
12/11:30pm 18.9 13.9 10.8 59 4.4 SSW 28 39 15 21 1015.1 1015.0 0.0
12/11:00pm 19.3 15.2 11.3 60 4.4 SSW 24 32 13 17 1015.2 1015.1 0.0
12/10:30pm 19.5 15.9 13.2 67 3.6 SSW 24 32 13 17 1015.1 1015.0 0.0
12/10:00pm 19.8 17.9 15.2 75 2.7 SSW 19 24 10 13 1014.9 1014.8 0.0
12/09:30pm 19.9 16.9 15.9 78 2.4 SW 26 35 14 19 1014.6 1014.5 0.0
12/09:00pm 20.0 17.3 15.6 76 2.6 SSW 24 35 13 19 1014.3 1014.2 0.0
12/08:30pm 20.2 16.8 15.7 75 2.7 SSW 28 41 15 22 1013.8 1013.7 0.0
12/08:00pm 20.5 17.1 15.8 74 2.8 SSW 28 39 15 21 1013.6 1013.5 0.0
12/07:30pm 20.7 17.0 15.9 74 2.9 SSW 30 39 16 21 1013.2 1013.1 0.0
12/07:00pm 21.4 18.0 15.7 70 3.4 SSW 28 37 15 20 1012.8 1012.7 0.0
12/06:30pm 22.0 18.1 15.5 66 3.9 SW 30 39 16 21 1012.3 1012.2 0.0
12/06:00pm 22.5 17.7 15.7 65 4.1 SW 35 48 19 26 1012.0 1011.9 0.0
12/05:30pm 23.1 17.4 15.2 61 4.7 SW 39 48 21 26 1011.6 1011.5 0.0
12/05:00pm 23.8 19.0 15.5 59 5.0 SW 35 46 19 25 1011.4 1011.3 0.0
12/04:30pm 25.0 20.6 15.6 56 5.7 SW 33 44 18 24 1011.1 1011.0 0.0
12/04:00pm 25.4 20.4 15.1 53 6.2 SSW 35 46 19 25 1011.3 1011.2 0.0
12/03:30pm 25.9 20.5 14.9 50 6.6 SW 37 46 20 25 1011.3 1011.2 0.0
12/03:00pm 26.0 20.9 14.7 49 6.8 SSW 35 50 19 27 1011.3 1011.2 0.0
12/02:30pm 26.5 21.0 14.7 48 7.1 SW 37 48 20 26 1011.2 1011.1 0.0
12/02:00pm 26.9 22.1 14.0 45 7.7 SW 32 41 17 22 1011.1 1011.0 0.0
12/01:30pm 26.2 20.4 13.9 46 7.3 SW 37 46 20 25 1011.0 1010.9 0.0
12/01:00pm 26.8 21.1 14.1 45 7.6 SW 37 46 20 25 1011.0 1010.9 0.0
12/12:30pm 26.8 22.1 14.9 48 7.2 WSW 33 43 18 23 1011.0 1010.9 0.0
12/12:00pm 26.6 22.8 15.8 51 6.6 SW 30 39 16 21 1010.9 1010.8 0.0
12/11:30am 26.5 23.2 16.1 52 6.4 WSW 28 39 15 21 1010.9 1010.8 0.0
12/11:00am 27.0 24.2 16.3 52 6.6 WSW 26 35 14 19 1010.7 1010.6 0.0
12/10:30am 26.3 23.7 16.8 56 5.9 SW 26 35 14 19 1010.7 1010.6 0.0
12/10:00am 26.2 24.1 17.1 57 5.7 WSW 24 32 13 17 1010.9 1010.8 0.0
12/09:30am 25.6 24.0 17.5 61 5.1 SW 22 28 12 15 1010.8 1010.7 0.0
12/09:00am 25.0 24.5 17.8 64 4.5 WSW 17 26 9 14 1010.8 1010.7 0.0
12/08:30am 24.4 24.7 17.9 67 4.1 SSW 13 20 7 11 1010.7 1010.6 0.0
12/08:00am 22.6 23.5 18.3 76 2.7 SSW 11 13 6 7 1010.6 1010.5 0.0
12/07:30am 21.5 23.0 19.0 86 1.6 SSW 9 15 5 8 1010.6 1010.5 0.0
12/07:00am 20.8 22.2 18.6 87 1.4 S 9 13 5 7 1010.3 1010.2 0.0
12/06:46am 20.5 21.5 18.6 89 1.2 SSE 11 15 6 8 1010.1 1010.0 0.0
12/06:30am 20.4 22.3 19.0 92 0.9 SE 7 11 4 6 1010.1 1010.0 0.0
12/06:00am 20.1 22.2 19.0 93 0.7 S 6 7 3 4 1009.8 1009.7 0.0
12/05:30am 19.5 21.2 18.5 94 0.6 WSW 7 9 4 5 1009.5 1009.4 0.0
12/05:00am 19.3 21.7 18.7 96 0.4 W 4 7 2 4 1009.1 1009.0 0.0
12/04:51am 19.2 21.8 18.4 95 0.5 SW 2 7 1 4 1009.0 1008.9 0.0
12/04:30am 18.4 20.3 17.6 95 0.5 SSE 4 6 2 3 1008.7 1008.6 0.0
12/04:20am 18.6 20.6 17.8 95 0.5 S 4 6 2 3 1008.6 1008.5 0.0
12/04:00am 18.8 20.6 18.2 96 0.4 SW 6 9 3 5 1008.6 1008.5 0.0
12/03:59am 18.8 20.5 18.0 95 0.5 SW 6 9 3 5 1008.6 1008.5 0.0
12/03:31am 18.6 19.6 17.8 95 0.5 ESE 9 11 5 6 1008.4 1008.3 0.0
12/03:30am 18.7 19.7 17.7 94 0.6 ESE 9 11 5 6 1008.4 1008.3 0.0
12/03:00am 18.9 20.3 17.8 93 0.7 SE 7 9 4 5 1008.5 1008.4 0.0
12/02:30am 19.2 20.6 17.9 92 0.8 SSE 7 9 4 5 1008.3 1008.2 0.0
12/02:00am 19.8 21.1 18.4 92 0.9 S 9 9 5 5 1008.6 1008.5 0.0
12/01:30am 19.8 21.0 18.2 90 1.0 WSW 9 11 5 6 1008.5 1008.4 0.0
12/01:00am 20.0 21.7 18.6 92 0.9 N 7 9 4 5 1008.4 1008.3 0.0
12/12:30am 19.6 20.7 18.0 90 1.0 NNE 9 13 5 7 1008.3 1008.2 0.0
12/12:00am 19.8 21.1 18.4 92 0.9 NE 9 9 5 5 1008.7 1008.6 0.0
 
Date/Time
WST
Temp
°C
App
Temp
°C
Dew
Point
°C
Rel
Hum
%
Delta-T
°C
Wind Press
QNH
hPa
Press
MSL
hPa
Rain since
9am
mm
Dir  Spd
km/h
Gust
km/h
Spd
kts
Gust
kts
11/11:30pm 20.9 22.7 18.8 88 1.3 NNW 7 9 4 5 1009.0 1008.9 0.0
11/11:21pm 20.8 23.5 18.7 88 1.3 N 2 9 1 5 1009.0 1008.9 0.0
11/11:00pm 21.2 24.1 19.0 87 1.4 W 2 7 1 4 1009.4 1009.3 0.0
11/10:41pm 21.2 24.1 19.0 87 1.4 W 2 9 1 5 1009.7 1009.6 0.0
11/10:30pm 21.2 23.3 19.0 87 1.4 SW 6 9 3 5 1009.3 1009.2 0.0
11/10:11pm 21.2 22.4 19.0 87 1.4 SW 11 15 6 8 1009.2 1009.1 0.0
11/10:00pm 21.3 23.4 18.9 86 1.5 WSW 6 9 3 5 1009.2 1009.1 0.0
11/09:53pm 21.3 22.9 19.1 87 1.4 WSW 9 11 5 6 1009.3 1009.2 0.0
11/09:30pm 21.4 22.6 19.0 86 1.5 WSW 11 15 6 8 1009.1 1009.0 0.0
11/09:00pm 21.6 22.3 18.9 84 1.7 WSW 13 19 7 10 1008.9 1008.8 0.0
11/08:30pm 21.7 21.8 19.2 86 1.6 WSW 17 20 9 11 1008.9 1008.8 0.0
11/08:00pm 22.3 22.4 19.2 82 2.0 WSW 17 24 9 13 1008.9 1008.8 0.0
11/07:30pm 23.1 24.1 18.7 76 2.8 WSW 11 17 6 9 1008.6 1008.5 0.0
11/07:00pm 24.3 23.3 17.9 67 4.0 WSW 20 30 11 16 1008.3 1008.2 0.0
11/06:30pm 26.1 24.5 16.4 55 6.0 WSW 20 26 11 14 1007.8 1007.7 0.0
11/06:00pm 26.7 25.3 16.9 55 6.1 WSW 20 24 11 13 1007.6 1007.5 0.0
11/05:30pm 28.7 26.6 15.3 44 8.2 W 20 26 11 14 1007.4 1007.3 0.0
11/05:00pm 28.9 26.4 14.1 40 8.9 W 20 26 11 14 1007.5 1007.4 0.0
11/04:30pm 28.7 25.1 14.1 40 8.8 W 26 33 14 18 1007.4 1007.3 0.0
11/04:00pm 30.5 25.8 11.9 31 10.9 WSW 28 37 15 20 1006.7 1006.6 0.0
11/03:30pm 31.8 26.8 11.0 28 12.1 W 28 39 15 21 1006.7 1006.6 0.0
11/03:00pm 32.4 27.8 11.2 27 12.4 WSW 26 33 14 18 1006.4 1006.3 0.0
11/02:30pm 32.7 29.1 11.7 27 12.4 SW 22 30 12 16 1006.4 1006.3 0.0
11/02:00pm 31.1 28.3 14.4 36 10.2 SW 22 30 12 16 1006.6 1006.5 0.0
11/01:30pm 30.4 27.3 14.5 38 9.7 WSW 24 32 13 17 1006.8 1006.7 0.0
11/01:00pm 32.9 29.1 13.6 31 11.7 W 26 33 14 18 1006.9 1006.8 0.0
11/12:30pm 34.8 30.5 10.7 23 14.1 W 24 32 13 17 1007.0 1006.9 0.0
11/12:00pm 34.9 29.5 10.9 23 14.1 W 30 37 16 20 1007.2 1007.1 0.0
11/11:45am 36.5 34.4 11.3 22 15.0 NW 13 33 7 18 1007.4 1007.3 0.0
11/11:30am 35.6 33.6 10.2 21 14.8 NNW 11 15 6 8 1007.7 1007.6 0.0
11/11:00am 35.2 33.9 11.4 23 14.1 N 9 17 5 9 1008.1 1008.0 0.0
11/10:30am 34.2 32.0 10.8 24 13.7 NW 13 19 7 10 1008.5 1008.4 0.0
11/10:00am 34.1 31.8 11.6 25 13.3 N 15 24 8 13 1008.7 1008.6 0.0
11/09:30am 33.9 31.1 11.3 25 13.3 NNE 17 20 9 11 1009.0 1008.9 0.0
11/09:00am 33.0 30.3 10.3 25 13.1 NNE 15 20 8 11 1009.3 1009.2 0.0
11/08:30am 32.2 29.6 10.8 27 12.4 NNE 15 20 8 11 1009.8 1009.7 0.0
11/08:00am 30.8 28.1 11.6 30 11.2 NE 17 20 9 11 1009.9 1009.8 0.0
11/07:30am 29.0 26.8 12.0 35 9.9 NE 15 20 8 11 1010.1 1010.0 0.0
11/07:00am 27.0 25.2 12.1 39 8.6 NE 13 15 7 8 1010.1 1010.0 0.0
11/06:30am 24.9 25.2 13.5 49 6.7 NE 4 7 2 4 1010.1 1010.0 0.0
11/06:00am 21.8 22.2 14.7 64 4.2 ESE 6 7 3 4 1009.7 1009.6 0.0
11/05:30am 18.9 19.2 14.4 75 2.6 ESE 6 7 3 4 1009.6 1009.5 0.0
11/05:00am 18.3 19.7 14.3 77 2.3 CALM 0 0 0 0 1009.5 1009.4 0.0
11/04:30am 19.2 20.8 14.9 76 2.5 CALM 0 0 0 0 1009.5 1009.4 0.0
11/04:00am 19.4 21.2 15.5 78 2.3 CALM 0 0 0 0 1009.4 1009.3 0.0
11/03:30am 18.9 18.8 15.0 78 2.3 E 9 9 5 5 1009.5 1009.4 0.0
11/03:00am 19.5 20.9 15.3 76 2.5 ESE 2 7 1 4 1009.4 1009.3 0.0
11/02:30am 19.7 20.3 15.3 76 2.6 E 6 7 3 4 1009.5 1009.4 0.0
11/02:00am 20.9 21.1 15.7 72 3.1 SSW 9 11 5 6 1009.7 1009.6 0.0
11/01:30am 20.5 20.3 15.8 74 2.8 SSE 11 13 6 7 1010.1 1010.0 0.0
11/01:00am 20.8 21.5 16.2 75 2.8 S 7 7 4 4 1010.1 1010.0 0.0
11/12:30am 20.7 21.4 15.7 73 3.0 SSE 6 7 3 4 1010.1 1010.0 0.0
11/12:00am 21.1 22.6 15.6 71 3.3 SE 2 6 1 3 1010.4 1010.3 0.0
 
Date/Time
WST
Temp
°C
App
Temp
°C
Dew
Point
°C
Rel
Hum
%
Delta-T
°C
Wind Press
QNH
hPa
Press
MSL
hPa
Rain since
9am
mm
Dir  Spd
km/h
Gust
km/h
Spd
kts
Gust
kts
10/11:30pm 21.7 22.4 15.7 68 3.6 SE 6 7 3 4 1010.8 1010.7 0.0
10/11:00pm 23.0 25.0 15.9 64 4.3 CALM 0 0 0 0 1011.1 1011.0 0.0
10/10:30pm 23.2 24.1 16.1 64 4.3 SE 6 6 3 3 1011.3 1011.2 0.0
10/10:00pm 24.4 24.6 15.8 58 5.2 S 9 13 5 7 1011.6 1011.5 0.0
10/09:30pm 25.1 24.4 15.3 54 5.9 SSW 13 17 7 9 1011.9 1011.8 0.0
10/09:00pm 25.6 24.8 15.2 52 6.3 SSW 13 17 7 9 1011.8 1011.7 0.0
10/08:30pm 25.7 24.9 15.1 52 6.4 SSW 13 15 7 8 1011.5 1011.4 0.0
10/08:00pm 26.2 25.6 14.5 48 7.0 SSW 11 17 6 9 1011.4 1011.3 0.0
10/07:30pm 26.8 24.5 14.1 45 7.6 SW 19 26 10 14 1010.7 1010.6 0.0
10/07:00pm 27.8 25.1 13.5 41 8.5 SSW 20 28 11 15 1010.3 1010.2 0.0
10/06:30pm 28.7 26.0 13.4 39 9.1 SSW 20 28 11 15 1010.2 1010.1 0.0
10/06:00pm 29.3 25.9 13.6 38 9.4 SSW 24 32 13 17 1010.2 1010.1 0.0
10/05:30pm 30.6 28.0 13.9 36 10.1 SW 20 24 11 13 1010.0 1009.9 0.0
10/05:00pm 30.0 26.7 13.9 37 9.7 SW 24 30 13 16 1010.0 1009.9 0.0
10/04:30pm 30.5 26.8 14.0 36 10.0 SW 26 33 14 18 1010.0 1009.9 0.0
10/04:00pm 31.4 28.4 14.8 36 10.2 WSW 24 32 13 17 1010.1 1010.0 0.0
10/03:30pm 31.1 27.3 14.6 36 10.1 WSW 28 37 15 20 1009.9 1009.8 0.0
10/03:00pm 32.8 28.4 14.2 32 11.4 WSW 30 37 16 20 1010.0 1009.9 0.0
10/02:30pm 36.4 31.9 11.4 22 14.9 WSW 26 33 14 18 1009.9 1009.8 0.0
10/02:00pm 36.1 33.7 10.0 20 15.2 SW 13 17 7 9 1010.3 1010.2 0.0
10/01:30pm 35.8 33.5 10.3 21 14.9 WNW 13 19 7 10 1010.6 1010.5 0.0
10/01:00pm 35.4 33.6 12.0 24 14.0 NNE 13 20 7 11 1010.9 1010.8 0.0
10/12:30pm 34.9 32.9 11.4 24 13.9 W 13 20 7 11 1011.0 1010.9 0.0
10/12:00pm 34.5 31.8 11.8 25 13.5 NNW 17 30 9 16 1011.5 1011.4 0.0
10/11:30am 34.4 31.8 12.1 26 13.3 NNE 17 28 9 15 1011.8 1011.7 0.0
10/11:00am 34.2 29.7 11.5 25 13.4 N 26 33 14 18 1012.3 1012.2 0.0
10/10:30am 34.1 30.4 11.6 25 13.3 N 22 35 12 19 1012.3 1012.2 0.0
10/10:00am 32.6 30.1 12.2 28 12.1 NE 17 26 9 14 1012.4 1012.3 0.0

Other Formats:

Comma delimited format used in spreadsheet applications
http://www.bom.gov.au/fwo/IDW60801/IDW60801.94609.axf

JavaScript Object Notation format (JSON) in row-major order
http://www.bom.gov.au/fwo/IDW60801/IDW60801.94609.json